createdAt,value
2022-12-18T00:01:20.409Z,95762.88
2022-12-18T00:03:47.750Z,95773.84
2022-12-18T00:06:14.946Z,95780.50
2022-12-18T00:08:42.597Z,95781.31
2022-12-18T00:11:13.858Z,95772.03
2022-12-18T00:13:41.423Z,95779.78
2022-12-18T00:16:13.034Z,95779.06
2022-12-18T00:18:40.293Z,95771.06
2022-12-18T00:21:09.793Z,95797.59
2022-12-18T00:23:38.916Z,95800.75
2022-12-18T00:26:09.143Z,95765.91
2022-12-18T00:28:35.858Z,95793.16
2022-12-18T00:31:08.337Z,95796.94
2022-12-18T00:33:36.751Z,95797.78
2022-12-18T00:36:10.394Z,95804.66
2022-12-18T00:38:37.889Z,95807.03
2022-12-18T00:41:05.600Z,95811.63
2022-12-18T00:43:37.041Z,95810.91
2022-12-18T00:46:04.906Z,95796.69
2022-12-18T00:48:32.072Z,95815.56
2022-12-18T00:50:58.698Z,95786.81
2022-12-18T00:53:25.373Z,95809.84
2022-12-18T00:55:52.138Z,95807.25
2022-12-18T00:58:18.872Z,95822.22
2022-12-18T01:00:45.898Z,95821.09
2022-12-18T01:03:15.341Z,95802.69
2022-12-18T01:05:42.975Z,95831.09
2022-12-18T01:08:10.020Z,95838.06
2022-12-18T01:10:36.776Z,95835.03
2022-12-18T01:13:03.376Z,95835.38
2022-12-18T01:15:30.122Z,95838.09
2022-12-18T01:17:56.748Z,95835.44
2022-12-18T01:20:23.447Z,95842.75
2022-12-18T01:22:50.103Z,95837.81
2022-12-18T01:25:16.756Z,95848.94
2022-12-18T01:27:44.278Z,95843.97
2022-12-18T01:30:11.512Z,95830.56
2022-12-18T01:32:38.463Z,95847.47
2022-12-18T01:35:06.457Z,95858.59
2022-12-18T01:37:33.102Z,95850.59
2022-12-18T01:39:59.708Z,95855.94
2022-12-18T01:42:26.684Z,95869.78
2022-12-18T01:45:15.041Z,95867.44
2022-12-18T01:47:49.032Z,95865.53
2022-12-18T01:50:39.220Z,95850.59
2022-12-18T01:53:09.004Z,95867.09
2022-12-18T01:55:52.928Z,95862.13
2022-12-18T01:58:21.172Z,95851.38
2022-12-18T02:00:47.920Z,95875.56
2022-12-18T02:03:15.617Z,95867.88
2022-12-18T02:05:51.213Z,95869.78
2022-12-18T02:08:28.537Z,95872.88
2022-12-18T02:11:12.022Z,95870.97
2022-12-18T02:13:56.621Z,95877.13
2022-12-18T02:16:45.841Z,95866.03
2022-12-18T02:19:34.575Z,95889.81
2022-12-18T02:22:33.594Z,95898.69
2022-12-18T02:25:30.764Z,95889.44
2022-12-18T02:28:01.013Z,95892.53
2022-12-18T02:30:32.297Z,95887.97
2022-12-18T02:33:02.146Z,95898.31
2022-12-18T02:35:31.311Z,95894.88
2022-12-18T02:37:59.532Z,95908.34
2022-12-18T02:40:29.397Z,95897.22
2022-12-18T02:42:56.360Z,95900.69
2022-12-18T02:45:22.931Z,95905.66
2022-12-18T02:47:51.572Z,95926.84
2022-12-18T02:50:34.178Z,95911.47
2022-12-18T02:53:28.463Z,95918.38
2022-12-18T02:56:19.572Z,95921.13
2022-12-18T02:58:46.269Z,95915.38
2022-12-18T03:01:28.297Z,95929.19
2022-12-18T03:04:09.517Z,95899.19
2022-12-18T03:06:48.129Z,95920.31
2022-12-18T03:09:40.376Z,95906.47
2022-12-18T03:12:24.032Z,95888.44
2022-12-18T03:14:59.117Z,95913.03
2022-12-18T03:17:28.944Z,95929.19
2022-12-18T03:19:59.832Z,95923.03
2022-12-18T03:22:31.280Z,95924.56
2022-12-18T03:24:58.698Z,95906.88
2022-12-18T03:27:27.667Z,95921.09
2022-12-18T03:30:08.314Z,95933.81
2022-12-18T03:32:42.568Z,95943.41
2022-12-18T03:35:13.269Z,95947.28
2022-12-18T03:37:40.091Z,95931.50
2022-12-18T03:40:07.310Z,95954.97
2022-12-18T03:42:57.759Z,95926.88
2022-12-18T03:45:39.348Z,95952.28
2022-12-18T03:48:18.888Z,95958.84
2022-12-18T03:50:54.101Z,95966.91
2022-12-18T03:53:53.533Z,95964.22
2022-12-18T03:56:24.819Z,95967.66
2022-12-18T03:58:53.681Z,95946.91
2022-12-18T04:01:27.775Z,95949.22
2022-12-18T04:03:56.132Z,95978.44
2022-12-18T04:06:23.414Z,95940.00
2022-12-18T04:08:50.451Z,95956.94
2022-12-18T04:11:17.176Z,95949.63
2022-12-18T04:13:44.409Z,95966.53
2022-12-18T04:16:11.300Z,95981.53
2022-12-18T04:18:38.356Z,95983.44
2022-12-18T04:21:05.142Z,95967.28
2022-12-18T04:23:31.828Z,95988.81
2022-12-18T04:25:58.495Z,96007.28
2022-12-18T04:28:25.326Z,96018.41
2022-12-18T04:30:52.304Z,96006.13
2022-12-18T04:33:19.493Z,96011.13
2022-12-18T04:35:46.239Z,96014.59
2022-12-18T04:38:13.114Z,96016.13
2022-12-18T04:40:40.071Z,96023.81
2022-12-18T04:43:08.537Z,96028.03
2022-12-18T04:45:35.407Z,96028.03
2022-12-18T04:48:03.615Z,96030.69
2022-12-18T04:50:31.210Z,96034.19
2022-12-18T04:52:58.319Z,96034.97
2022-12-18T04:55:28.524Z,96038.41
2022-12-18T04:57:55.271Z,96043.00
2022-12-18T05:00:22.125Z,96041.09
2022-12-18T05:02:49.001Z,96047.63
2022-12-18T05:05:15.952Z,96025.31
2022-12-18T05:07:42.698Z,96055.66
2022-12-18T05:10:10.418Z,96060.63
2022-12-18T05:12:57.141Z,96050.25
2022-12-18T05:15:23.866Z,96060.66
2022-12-18T05:17:50.544Z,96046.78
2022-12-18T05:20:17.309Z,96070.66
2022-12-18T05:22:43.875Z,96079.94
2022-12-18T05:25:10.641Z,96094.13
2022-12-18T05:27:37.245Z,96088.75
2022-12-18T05:30:04.295Z,96091.44
2022-12-18T05:32:31.014Z,96099.13
2022-12-18T05:34:58.269Z,96093.72
2022-12-18T05:37:24.933Z,96109.91
2022-12-18T05:39:51.707Z,96065.59
2022-12-18T05:42:18.299Z,96112.16
2022-12-18T05:44:45.436Z,96117.16
2022-12-18T05:47:12.160Z,96117.94
2022-12-18T05:49:38.766Z,96092.91
2022-12-18T05:52:05.620Z,96090.19
2022-12-18T05:54:32.471Z,96115.59
2022-12-18T05:56:59.631Z,96120.97
2022-12-18T05:59:26.281Z,96125.19
2022-12-18T06:01:53.133Z,96106.31
2022-12-18T06:04:19.990Z,96141.00
2022-12-18T06:06:46.611Z,96149.81
2022-12-18T06:09:13.460Z,96159.03
2022-12-18T06:11:40.463Z,96155.94
2022-12-18T06:14:07.665Z,96152.09
2022-12-18T06:16:34.429Z,96144.03
2022-12-18T06:19:03.357Z,96155.22
2022-12-18T06:21:30.987Z,96157.88
2022-12-18T06:23:59.091Z,96164.41
2022-12-18T06:26:28.461Z,96165.94
2022-12-18T06:28:55.641Z,96128.13
2022-12-18T06:31:22.302Z,96157.84
2022-12-18T06:33:49.449Z,96123.13
2022-12-18T06:36:17.624Z,96159.34
2022-12-18T06:38:45.083Z,96163.56
2022-12-18T06:41:17.613Z,96163.63
2022-12-18T06:43:45.175Z,96160.53
2022-12-18T06:46:12.436Z,96179.38
2022-12-18T06:48:39.687Z,96181.31
2022-12-18T06:51:06.941Z,96192.03
2022-12-18T06:53:34.419Z,96184.34
2022-12-18T06:56:09.785Z,96187.44
2022-12-18T06:58:37.334Z,96169.28
2022-12-18T07:01:06.957Z,96179.72
2022-12-18T07:03:33.752Z,96178.56
2022-12-18T07:06:00.531Z,96202.78
2022-12-18T07:08:27.171Z,96181.63
2022-12-18T07:10:56.381Z,96210.09
2022-12-18T07:13:23.740Z,96215.88
2022-12-18T07:15:50.498Z,96209.31
2022-12-18T07:18:17.357Z,96221.63
2022-12-18T07:20:45.387Z,96208.19
2022-12-18T07:23:12.638Z,96216.59
2022-12-18T07:25:40.451Z,96216.16
2022-12-18T07:28:07.763Z,96210.34
2022-12-18T07:30:38.668Z,96215.06
2022-12-18T07:33:05.604Z,96217.38
2022-12-18T07:35:33.697Z,96211.22
2022-12-18T07:38:03.030Z,96235.06
2022-12-18T07:40:29.742Z,96213.91
2022-12-18T07:42:56.547Z,96220.41
2022-12-18T07:45:23.270Z,96226.22
2022-12-18T07:47:49.977Z,96240.44
2022-12-18T07:50:16.860Z,96248.94
2022-12-18T07:52:43.490Z,96225.00
2022-12-18T07:55:10.125Z,96230.38
2022-12-18T07:57:55.438Z,96237.34
2022-12-18T08:00:23.828Z,96241.97
2022-12-18T08:02:50.716Z,96252.00
2022-12-18T08:05:17.579Z,96244.28
2022-12-18T08:07:44.321Z,96252.72
2022-12-18T08:10:10.996Z,96257.03
2022-12-18T08:12:37.863Z,96246.63
2022-12-18T08:15:04.760Z,96249.28
2022-12-18T08:17:31.889Z,96267.78
2022-12-18T08:19:58.585Z,96248.81
2022-12-18T08:22:26.026Z,96270.78
2022-12-18T08:24:52.995Z,96282.38
2022-12-18T08:27:35.225Z,96268.84
2022-12-18T08:30:02.305Z,96278.53
2022-12-18T08:32:29.498Z,96273.09
2022-12-18T08:34:56.165Z,96278.91
2022-12-18T08:37:22.916Z,96286.66
2022-12-18T08:39:49.621Z,96288.66
2022-12-18T08:42:34.959Z,96305.56
2022-12-18T08:45:02.225Z,96276.63
2022-12-18T08:47:28.812Z,96297.56
2022-12-18T08:49:55.689Z,96300.31
2022-12-18T08:52:22.732Z,96297.59
2022-12-18T08:54:49.464Z,96313.00
2022-12-18T08:57:17.176Z,96301.47
2022-12-18T08:59:43.907Z,96295.63
2022-12-18T09:02:12.419Z,96299.41
2022-12-18T09:04:41.040Z,96301.44
2022-12-18T09:07:08.473Z,96299.53
2022-12-18T09:09:35.066Z,96309.25
2022-12-18T09:12:01.749Z,96287.63
2022-12-18T09:14:28.397Z,96303.88
2022-12-18T09:16:55.230Z,96280.41
2022-12-18T09:19:21.914Z,96302.72
2022-12-18T09:21:48.740Z,96294.25
2022-12-18T09:24:16.852Z,96298.91
2022-12-18T09:26:47.312Z,96303.59
2022-12-18T09:29:16.789Z,96300.50
2022-12-18T09:31:45.828Z,96288.13
2022-12-18T09:34:12.495Z,96287.41
2022-12-18T09:36:39.433Z,96273.56
2022-12-18T09:39:08.597Z,96286.19
2022-12-18T09:41:58.061Z,96282.28
2022-12-18T09:44:41.483Z,96298.91
2022-12-18T09:47:17.538Z,96290.06
2022-12-18T09:49:47.032Z,96278.13
2022-12-18T09:52:38.616Z,96287.44
2022-12-18T09:55:36.895Z,96299.00
2022-12-18T09:58:23.459Z,96294.00
2022-12-18T10:00:54.291Z,96297.06
2022-12-18T10:03:21.817Z,96294.00
2022-12-18T10:05:55.167Z,96290.19
2022-12-18T10:08:33.816Z,96292.47
2022-12-18T10:11:40.068Z,96286.34
2022-12-18T10:14:28.530Z,96289.84
2022-12-18T10:17:14.909Z,96287.50
2022-12-18T10:19:42.318Z,96291.00
2022-12-18T10:22:27.759Z,96297.13
2022-12-18T10:25:07.957Z,96297.22
2022-12-18T10:27:34.942Z,96291.06
2022-12-18T10:30:02.433Z,96303.00
2022-12-18T10:32:31.757Z,96276.81
2022-12-18T10:35:02.038Z,96299.91
2022-12-18T10:37:31.076Z,96308.00
2022-12-18T10:40:22.413Z,96296.47
2022-12-18T10:43:05.332Z,96297.25
2022-12-18T10:45:31.961Z,96295.72
2022-12-18T10:47:59.395Z,96292.25
2022-12-18T10:50:28.663Z,96289.16
2022-12-18T10:53:07.689Z,96287.22
2022-12-18T10:55:45.188Z,96290.72
2022-12-18T10:58:26.780Z,96304.19
2022-12-18T11:01:14.086Z,96296.88
2022-12-18T11:03:44.384Z,96269.50
2022-12-18T11:06:16.899Z,96289.56
2022-12-18T11:08:45.876Z,96298.03
2022-12-18T11:11:24.315Z,96286.47
2022-12-18T11:14:03.580Z,96294.94
2022-12-18T11:16:34.599Z,96284.16
2022-12-18T11:19:15.281Z,96288.75
2022-12-18T11:21:43.421Z,96271.44
2022-12-18T11:24:24.175Z,96281.06
2022-12-18T11:26:54.962Z,96297.28
2022-12-18T11:29:46.244Z,96305.00
2022-12-18T11:32:16.050Z,96301.53
2022-12-18T11:34:48.530Z,96304.94
2022-12-18T11:37:23.150Z,96295.72
2022-12-18T11:40:07.658Z,96274.91
2022-12-18T11:42:48.095Z,96307.28
2022-12-18T11:45:14.707Z,96302.25
2022-12-18T11:48:04.789Z,96279.09
2022-12-18T11:50:52.184Z,96295.69
2022-12-18T11:53:19.739Z,96295.69
2022-12-18T11:56:01.838Z,96295.34
2022-12-18T11:58:31.585Z,96303.41
2022-12-18T12:01:16.675Z,96291.06
2022-12-18T12:04:22.933Z,96296.47
2022-12-18T12:07:10.829Z,96294.56
2022-12-18T12:09:46.539Z,96290.31
2022-12-18T12:12:48.721Z,96290.31
2022-12-18T12:15:29.983Z,96281.06
2022-12-18T12:18:00.451Z,96294.19
2022-12-18T12:20:36.207Z,96294.19
2022-12-18T12:23:16.622Z,96296.13
2022-12-18T12:26:08.708Z,96298.81
2022-12-18T12:29:10.599Z,96292.25
2022-12-18T12:31:52.916Z,96296.13
2022-12-18T12:34:38.722Z,96300.72
2022-12-18T12:37:23.670Z,96297.66
2022-12-18T12:39:54.245Z,96281.84
2022-12-18T12:43:01.757Z,96303.81
2022-12-18T12:45:38.796Z,96300.75
2022-12-18T12:48:10.689Z,96306.91
2022-12-18T12:50:40.083Z,96319.22
2022-12-18T12:53:23.850Z,96289.13
2022-12-18T12:55:53.173Z,96292.59
2022-12-18T12:58:52.248Z,96256.34
2022-12-18T13:01:42.451Z,96309.19
2022-12-18T13:04:45.294Z,96327.28
2022-12-18T13:07:19.973Z,96327.63
2022-12-18T13:10:19.159Z,96323.41
2022-12-18T13:13:09.213Z,96329.19
2022-12-18T13:15:49.436Z,96285.91
2022-12-18T13:18:21.394Z,96335.34
2022-12-18T13:21:03.950Z,96341.91
2022-12-18T13:23:32.865Z,96332.63
2022-12-18T13:26:10.775Z,96299.06
2022-12-18T13:28:49.817Z,96327.28
2022-12-18T13:31:42.188Z,96338.84
2022-12-18T13:34:29.558Z,96348.06
2022-12-18T13:37:18.304Z,96328.78
2022-12-18T13:39:45.200Z,96348.84
2022-12-18T13:42:32.772Z,96344.63
2022-12-18T13:44:59.592Z,96339.13
2022-12-18T13:47:34.708Z,96354.22
2022-12-18T13:50:21.081Z,96357.25
2022-12-18T13:52:49.601Z,96287.84
2022-12-18T13:55:21.784Z,96362.66
2022-12-18T13:57:48.652Z,96366.50
2022-12-18T14:00:29.759Z,96366.91
2022-12-18T14:02:58.935Z,96361.91
2022-12-18T14:05:39.032Z,96327.91
2022-12-18T14:08:12.338Z,96337.94
2022-12-18T14:10:49.019Z,96381.13
2022-12-18T14:13:42.877Z,96374.97
2022-12-18T14:16:16.673Z,96361.06
2022-12-18T14:18:51.806Z,96364.06
2022-12-18T14:21:30.528Z,96367.19
2022-12-18T14:24:10.176Z,96380.28
2022-12-18T14:26:36.971Z,96378.75
2022-12-18T14:29:23.471Z,96379.94
2022-12-18T14:32:25.627Z,96384.13
2022-12-18T14:34:55.250Z,96379.44
2022-12-18T14:37:28.056Z,96387.16
2022-12-18T14:39:55.126Z,96388.69
2022-12-18T14:42:21.947Z,96375.19
2022-12-18T14:45:12.952Z,96379.47
2022-12-18T14:47:35.625Z,96391.78
2022-12-18T14:50:02.321Z,96373.25
2022-12-18T14:52:32.550Z,96384.03
2022-12-18T14:54:59.688Z,96393.28
2022-12-18T14:57:36.581Z,96385.19
2022-12-18T15:00:09.000Z,96402.91
2022-12-18T15:02:37.277Z,96392.53
2022-12-18T15:05:12.632Z,96400.59
2022-12-18T15:07:51.847Z,96404.78
2022-12-18T15:10:40.306Z,96376.69
2022-12-18T15:13:10.414Z,96389.34
2022-12-18T15:15:37.230Z,96407.81
2022-12-18T15:18:05.966Z,96407.06
2022-12-18T15:20:34.151Z,96407.09
2022-12-18T15:23:00.879Z,96412.75
2022-12-18T15:25:38.377Z,96391.19
2022-12-18T15:28:16.898Z,96418.63
2022-12-18T15:31:02.394Z,96413.50
2022-12-18T15:33:37.776Z,96420.81
2022-12-18T15:36:10.177Z,96415.44
2022-12-18T15:38:37.134Z,96427.44
2022-12-18T15:41:14.165Z,96420.06
2022-12-18T15:43:41.804Z,96426.59
2022-12-18T15:46:18.141Z,96432.81
2022-12-18T15:48:47.596Z,96441.66
2022-12-18T15:51:19.464Z,96443.97
2022-12-18T15:53:47.702Z,96457.81
2022-12-18T15:56:34.945Z,96455.13
2022-12-18T15:59:02.921Z,96444.72
2022-12-18T16:01:32.900Z,96431.91
2022-12-18T16:04:01.005Z,96455.75
2022-12-18T16:06:36.370Z,96460.81
2022-12-18T16:09:11.938Z,96459.97
2022-12-18T16:11:43.181Z,96456.50
2022-12-18T16:14:22.765Z,96473.91
2022-12-18T16:16:53.977Z,96473.09
2022-12-18T16:19:22.506Z,96480.03
2022-12-18T16:21:51.727Z,96470.41
2022-12-18T16:24:24.473Z,96461.03
2022-12-18T16:26:55.153Z,96470.75
2022-12-18T16:29:28.335Z,96473.75
2022-12-18T16:31:56.552Z,96478.28
2022-12-18T16:34:35.799Z,96468.34
2022-12-18T16:37:06.449Z,96486.75
2022-12-18T16:39:35.648Z,96465.13
2022-12-18T16:42:05.921Z,96461.66
2022-12-18T16:44:34.269Z,96489.03
2022-12-18T16:47:03.452Z,96496.34
2022-12-18T16:49:31.003Z,96515.56
2022-12-18T16:51:57.877Z,96519.00
2022-12-18T16:54:25.495Z,96510.06
2022-12-18T16:56:52.528Z,96519.72
2022-12-18T16:59:20.006Z,96517.38
2022-12-18T17:01:47.869Z,96529.38
2022-12-18T17:04:15.580Z,96513.88
2022-12-18T17:06:44.831Z,96529.63
2022-12-18T17:09:15.486Z,96540.88
2022-12-18T17:11:42.713Z,96550.94
2022-12-18T17:14:18.028Z,96545.75
2022-12-18T17:16:44.890Z,96526.78
2022-12-18T17:19:16.909Z,96554.19
2022-12-18T17:21:45.562Z,96551.81
2022-12-18T17:24:12.480Z,96553.59
2022-12-18T17:26:39.712Z,96563.31
2022-12-18T17:29:06.571Z,96564.47
2022-12-18T17:31:34.090Z,96542.75
2022-12-18T17:34:03.223Z,96568.50
2022-12-18T17:36:32.442Z,96557.31
2022-12-18T17:39:03.770Z,96552.63
2022-12-18T17:41:31.071Z,96548.00
2022-12-18T17:44:00.656Z,96567.03
2022-12-18T17:46:28.771Z,96551.16
2022-12-18T17:48:56.388Z,96553.41
2022-12-18T17:51:23.399Z,96562.56
2022-12-18T17:53:50.862Z,96545.22
2022-12-18T17:56:20.319Z,96562.47
2022-12-18T17:58:48.397Z,96554.97
2022-12-18T18:01:18.118Z,96551.09
2022-12-18T18:03:45.820Z,96535.63
2022-12-18T18:06:15.732Z,96561.59
2022-12-18T18:08:42.594Z,96561.31
2022-12-18T18:11:32.562Z,96570.03
2022-12-18T18:14:03.036Z,96573.81
2022-12-18T18:16:42.852Z,96574.78
2022-12-18T18:19:22.020Z,96568.44
2022-12-18T18:21:50.989Z,96569.81
2022-12-18T18:24:23.474Z,96566.22
2022-12-18T18:26:51.091Z,96570.06
2022-12-18T18:29:21.021Z,96578.16
2022-12-18T18:31:48.049Z,96573.16
2022-12-18T18:34:21.354Z,96584.75
2022-12-18T18:36:48.288Z,96577.25
2022-12-18T18:39:18.440Z,96589.81
2022-12-18T18:41:47.882Z,96594.63
2022-12-18T18:44:16.513Z,96573.84
2022-12-18T18:46:43.649Z,96592.72
2022-12-18T18:49:10.933Z,96578.25
2022-12-18T18:51:37.796Z,96597.47
2022-12-18T18:54:05.117Z,96602.41
2022-12-18T18:59:20.015Z,96594.72
2022-12-18T19:01:53.107Z,96613.94
2022-12-18T19:04:20.188Z,96591.56
2022-12-18T19:06:48.027Z,96616.56
2022-12-18T19:09:15.830Z,96617.97
2022-12-18T19:12:01.342Z,96611.22
2022-12-18T19:14:28.310Z,96629.00
2022-12-18T19:16:55.639Z,96616.47
2022-12-18T19:19:22.631Z,96631.53
2022-12-18T19:21:50.218Z,96615.09
2022-12-18T19:24:17.410Z,96612.25
2022-12-18T19:26:44.198Z,96621.38
2022-12-18T19:29:12.380Z,96640.50
2022-12-18T19:31:39.120Z,96633.59
2022-12-18T19:34:07.998Z,96640.34
2022-12-18T19:36:37.062Z,96628.50
2022-12-18T19:39:16.501Z,96625.31
2022-12-18T19:41:44.349Z,96652.63
2022-12-18T19:44:13.783Z,96664.34
2022-12-18T19:46:43.029Z,96661.41
2022-12-18T19:49:11.303Z,96658.75
2022-12-18T19:51:43.604Z,96657.13
2022-12-18T19:54:16.179Z,96650.28
2022-12-18T19:56:43.679Z,96641.16
2022-12-18T19:59:11.446Z,96676.94
2022-12-18T20:01:38.319Z,96670.81
2022-12-18T20:04:06.056Z,96674.19
2022-12-18T20:06:46.792Z,96671.28
2022-12-18T20:09:13.489Z,96683.78
2022-12-18T20:11:42.002Z,96679.91
2022-12-18T20:14:11.239Z,96679.56
2022-12-18T20:16:38.568Z,96677.59
2022-12-18T20:19:06.451Z,96672.31
2022-12-18T20:21:33.367Z,96688.75
2022-12-18T20:24:01.290Z,96681.16
2022-12-18T20:26:28.521Z,96687.31
2022-12-18T20:28:56.725Z,96687.31
2022-12-18T20:31:24.762Z,96692.56
2022-12-18T20:33:53.253Z,96697.31
2022-12-18T20:36:23.588Z,96696.34
2022-12-18T20:38:57.021Z,96699.72
2022-12-18T20:41:27.355Z,96699.56
2022-12-18T20:44:04.724Z,96713.47
2022-12-18T20:46:31.556Z,96720.28
2022-12-18T20:48:58.329Z,96716.06
2022-12-18T20:51:26.804Z,96718.97
2022-12-18T20:53:55.699Z,96725.72
2022-12-18T20:56:23.426Z,96719.31
2022-12-18T20:58:51.767Z,96726.19
2022-12-18T21:01:23.717Z,96723.81
2022-12-18T21:03:51.726Z,96708.53
2022-12-18T21:06:20.651Z,96716.91
2022-12-18T21:08:48.060Z,96705.31
2022-12-18T21:11:52.033Z,96705.75
2022-12-18T21:14:24.762Z,96719.81
2022-12-18T21:16:54.511Z,96681.81
2022-12-18T21:19:25.104Z,96718.69
2022-12-18T21:21:52.892Z,96713.44
2022-12-18T21:24:19.886Z,96715.50
2022-12-18T21:26:47.946Z,96709.81
2022-12-18T21:29:17.889Z,96718.34
2022-12-18T21:31:45.515Z,96704.25
2022-12-18T21:34:21.600Z,96721.28
2022-12-18T21:36:49.632Z,96690.03
2022-12-18T21:39:17.251Z,96716.13
2022-12-18T21:42:03.714Z,96721.81
2022-12-18T21:44:30.965Z,96715.81
2022-12-18T21:47:15.138Z,96714.88
2022-12-18T21:49:53.086Z,96719.25
2022-12-18T21:52:31.178Z,96724.03
2022-12-18T21:55:06.196Z,96728.78
2022-12-18T21:57:35.956Z,96728.69
2022-12-18T22:00:03.177Z,96737.72
2022-12-18T22:02:30.085Z,96730.75
2022-12-18T22:04:57.033Z,96728.75
2022-12-18T22:07:23.671Z,96730.19
2022-12-18T22:09:50.397Z,96720.88
2022-12-18T22:12:35.368Z,96717.06
2022-12-18T22:15:04.741Z,96727.78
2022-12-18T22:17:31.363Z,96732.69
2022-12-18T22:19:58.068Z,96712.66
2022-12-18T22:22:25.005Z,96711.59
2022-12-18T22:24:51.706Z,96727.38
2022-12-18T22:27:18.397Z,96709.56
2022-12-18T22:30:03.598Z,96711.94
2022-12-18T22:32:31.823Z,96688.22
2022-12-18T22:35:05.233Z,96718.56
2022-12-18T22:37:34.378Z,96714.69
2022-12-18T22:40:03.103Z,96703.56
2022-12-18T22:42:31.421Z,96715.06
2022-12-18T22:44:58.301Z,96691.03
2022-12-18T22:47:29.490Z,96700.81
2022-12-18T22:49:57.415Z,96696.22
2022-12-18T22:52:25.080Z,96704.25
2022-12-18T22:54:53.537Z,96706.50
2022-12-18T22:57:21.768Z,96698.38
2022-12-18T22:59:49.554Z,96710.47
2022-12-18T23:02:17.846Z,96703.25
2022-12-18T23:04:45.279Z,96696.03
2022-12-18T23:07:12.065Z,96713.16
2022-12-18T23:09:40.281Z,96704.25
2022-12-18T23:12:07.828Z,96706.50
2022-12-18T23:14:34.779Z,96710.03
2022-12-18T23:17:01.425Z,96712.91
2022-12-18T23:19:28.107Z,96714.13
2022-12-18T23:21:58.279Z,96721.97
2022-12-18T23:24:28.246Z,96706.31
2022-12-18T23:26:58.051Z,96710.16
2022-12-18T23:29:24.823Z,96709.69
2022-12-18T23:31:51.490Z,96716.13
2022-12-18T23:34:18.145Z,96720.16
2022-12-18T23:36:46.453Z,96714.00
2022-12-18T23:39:15.428Z,96697.28
2022-12-18T23:41:55.108Z,96729.84
2022-12-18T23:44:21.807Z,96714.03
2022-12-18T23:46:48.680Z,96685.59
2022-12-18T23:49:15.445Z,96718.19
2022-12-18T23:51:42.114Z,96731.16
2022-12-18T23:54:10.417Z,96730.78
2022-12-18T23:56:37.106Z,96727.06
2022-12-18T23:59:03.962Z,96732.34
